createdAt,value
2022-10-19T00:00:17.818Z,90.96
2022-10-19T00:01:17.787Z,90.05
2022-10-19T00:02:17.925Z,90.25
2022-10-19T00:03:20.760Z,89.84
2022-10-19T00:04:17.898Z,90.14
2022-10-19T00:05:17.736Z,89.74
2022-10-19T00:06:18.147Z,90.66
2022-10-19T00:07:17.726Z,90.96
2022-10-19T00:08:17.798Z,89.43
2022-10-19T00:09:17.657Z,89.43
2022-10-19T00:10:17.736Z,89.54
2022-10-19T00:11:17.757Z,89.13
2022-10-19T00:12:17.727Z,89.33
2022-10-19T00:13:17.709Z,89.37
2022-10-19T00:14:17.728Z,89.78
2022-10-19T00:15:17.758Z,89.68
2022-10-19T00:16:17.617Z,90.49
2022-10-19T00:17:17.727Z,89.88
2022-10-19T00:18:17.610Z,89.98
2022-10-19T00:19:17.676Z,90.19
2022-10-19T00:20:17.887Z,89.88
2022-10-19T00:21:17.837Z,90.39
2022-10-19T00:22:17.526Z,89.78
2022-10-19T00:23:17.666Z,91.20
2022-10-19T00:24:17.557Z,90.70
2022-10-19T00:25:17.677Z,90.13
2022-10-19T00:26:16.869Z,90.33
2022-10-19T00:27:18.427Z,90.33
2022-10-19T00:28:17.878Z,90.03
2022-10-19T00:29:17.597Z,90.23
2022-10-19T00:30:17.558Z,90.74
2022-10-19T00:31:17.754Z,90.94
2022-10-19T00:32:17.626Z,90.53
2022-10-19T00:33:17.438Z,92.06
2022-10-19T00:34:17.727Z,91.96
2022-10-19T00:35:17.416Z,91.14
2022-10-19T00:36:17.907Z,90.03
2022-10-19T00:37:17.506Z,90.13
2022-10-19T00:38:17.567Z,91.41
2022-10-19T00:39:17.546Z,91.10
2022-10-19T00:40:17.529Z,90.59
2022-10-19T00:41:17.437Z,90.19
2022-10-19T00:42:17.497Z,90.90
2022-10-19T00:43:17.437Z,90.70
2022-10-19T00:44:17.459Z,90.49
2022-10-19T00:45:17.396Z,90.19
2022-10-19T00:46:17.257Z,89.28
2022-10-19T00:47:17.386Z,89.17
2022-10-19T00:48:17.217Z,89.07
2022-10-19T00:49:17.527Z,89.28
2022-10-19T00:50:17.327Z,88.56
2022-10-19T00:51:17.438Z,88.56
2022-10-19T00:52:17.258Z,88.26
2022-10-19T00:53:17.558Z,88.67
2022-10-19T00:54:17.186Z,89.68
2022-10-19T00:55:17.486Z,88.30
2022-10-19T00:56:17.266Z,88.40
2022-10-19T00:57:17.436Z,88.10
2022-10-19T00:58:17.236Z,88.40
2022-10-19T00:59:17.357Z,88.85
2022-10-19T01:00:17.285Z,88.95
2022-10-19T01:01:17.056Z,90.17
2022-10-19T01:02:17.395Z,90.27
2022-10-19T01:03:17.087Z,89.76
2022-10-19T01:04:17.228Z,89.26
2022-10-19T01:05:17.076Z,88.89
2022-10-19T01:06:17.247Z,89.30
2022-10-19T01:07:17.100Z,89.61
2022-10-19T01:08:17.186Z,89.14
2022-10-19T01:09:17.227Z,91.58
2022-10-19T01:10:17.256Z,90.56
2022-10-19T01:11:17.118Z,90.05
2022-10-19T01:12:17.166Z,91.38
2022-10-19T01:13:17.116Z,90.66
2022-10-19T01:14:17.186Z,91.88
2022-10-19T01:15:17.079Z,90.52
2022-10-19T01:16:16.907Z,89.61
2022-10-19T01:17:18.028Z,89.61
2022-10-19T01:18:17.027Z,89.00
2022-10-19T01:19:17.035Z,88.93
2022-10-19T01:20:16.918Z,89.79
2022-10-19T01:21:17.046Z,89.85
2022-10-19T01:22:16.908Z,90.77
2022-10-19T01:23:17.056Z,90.81
2022-10-19T01:24:16.869Z,91.99
2022-10-19T01:25:16.978Z,90.20
2022-10-19T01:26:16.927Z,89.79
2022-10-19T01:27:16.980Z,90.50
2022-10-19T01:28:17.077Z,90.55
2022-10-19T01:29:17.038Z,91.01
2022-10-19T01:30:17.107Z,90.40
2022-10-19T01:31:17.017Z,89.89
2022-10-19T01:32:16.948Z,91.16
2022-10-19T01:33:16.727Z,90.95
2022-10-19T01:34:16.887Z,92.07
2022-10-19T01:35:16.736Z,92.27
2022-10-19T01:36:16.976Z,91.77
2022-10-19T01:37:16.677Z,91.26
2022-10-19T01:38:16.927Z,91.66
2022-10-19T01:39:16.926Z,91.05
2022-10-19T01:40:16.917Z,91.61
2022-10-19T01:41:17.536Z,91.61
2022-10-19T01:42:16.856Z,92.16
2022-10-19T01:43:16.788Z,92.36
2022-10-19T01:44:16.811Z,92.57
2022-10-19T01:45:16.796Z,92.67
2022-10-19T01:46:16.767Z,92.81
2022-10-19T01:47:16.737Z,93.52
2022-10-19T01:48:16.558Z,93.73
2022-10-19T01:49:16.811Z,93.93
2022-10-19T01:50:16.696Z,94.04
2022-10-19T01:51:16.898Z,94.14
2022-10-19T01:52:16.538Z,94.24
2022-10-19T01:53:16.688Z,94.65
2022-10-19T01:54:16.645Z,94.85
2022-10-19T01:55:16.706Z,94.24
2022-10-19T01:56:16.706Z,93.84
2022-10-19T01:57:16.667Z,93.93
2022-10-19T01:58:16.597Z,93.84
2022-10-19T01:59:16.646Z,93.84
2022-10-19T02:00:16.596Z,93.84
2022-10-19T02:01:16.679Z,94.14
2022-10-19T02:02:16.529Z,94.04
2022-10-19T02:03:16.376Z,93.93
2022-10-19T02:04:16.570Z,94.14
2022-10-19T02:05:16.409Z,94.55
2022-10-19T02:06:16.837Z,94.34
2022-10-19T02:07:16.437Z,94.14
2022-10-19T02:08:16.540Z,94.04
2022-10-19T02:09:16.427Z,94.04
2022-10-19T02:10:16.589Z,94.65
2022-10-19T02:11:16.566Z,94.71
2022-10-19T02:12:16.636Z,94.71
2022-10-19T02:13:16.387Z,94.26
2022-10-19T02:14:16.669Z,94.26
2022-10-19T02:15:16.427Z,93.70
2022-10-19T02:16:16.449Z,93.40
2022-10-19T02:17:16.528Z,92.18
2022-10-19T02:18:16.288Z,92.18
2022-10-19T02:19:16.426Z,91.93
2022-10-19T02:20:16.232Z,92.44
2022-10-19T02:21:16.397Z,93.05
2022-10-19T02:22:16.316Z,92.13
2022-10-19T02:23:16.397Z,92.23
2022-10-19T02:24:16.258Z,91.48
2022-10-19T02:25:16.416Z,91.99
2022-10-19T02:26:16.297Z,91.99
2022-10-19T02:27:16.408Z,91.78
2022-10-19T02:28:16.475Z,91.58
2022-10-19T02:29:16.466Z,91.99
2022-10-19T02:30:15.517Z,91.68
2022-10-19T02:31:16.316Z,90.97
2022-10-19T02:32:16.266Z,90.97
2022-10-19T02:33:16.166Z,91.33
2022-10-19T02:34:16.288Z,90.72
2022-10-19T02:35:16.085Z,90.31
2022-10-19T02:36:16.287Z,90.83
2022-10-19T02:37:15.519Z,91.43
2022-10-19T02:38:16.236Z,91.13
2022-10-19T02:39:16.147Z,89.91
2022-10-19T02:40:16.296Z,90.01
2022-10-19T02:41:16.056Z,90.07
2022-10-19T02:42:15.377Z,89.87
2022-10-19T02:43:16.126Z,89.56
2022-10-19T02:44:16.219Z,89.05
2022-10-19T02:45:16.139Z,88.95
2022-10-19T02:46:16.156Z,88.59
2022-10-19T02:47:16.207Z,88.89
2022-10-19T02:48:16.157Z,89.44
2022-10-19T02:49:16.157Z,89.75
2022-10-19T02:50:15.926Z,90.25
2022-10-19T02:51:16.166Z,90.60
2022-10-19T02:52:15.950Z,90.60
2022-10-19T02:53:16.087Z,90.81
2022-10-19T02:54:15.928Z,90.70
2022-10-19T02:55:16.027Z,90.70
2022-10-19T02:56:15.907Z,90.81
2022-10-19T02:57:16.101Z,91.22
2022-10-19T02:58:16.017Z,91.62
2022-10-19T02:59:15.997Z,91.22
2022-10-19T03:00:16.117Z,91.01
2022-10-19T03:01:16.107Z,90.66
2022-10-19T03:02:15.928Z,90.70
2022-10-19T03:03:16.027Z,90.56
2022-10-19T03:04:15.949Z,90.97
2022-10-19T03:05:15.857Z,91.17
2022-10-19T03:06:15.946Z,90.97
2022-10-19T03:07:15.768Z,90.86
2022-10-19T03:08:15.917Z,90.97
2022-10-19T03:09:15.937Z,90.97
2022-10-19T03:10:15.917Z,90.86
2022-10-19T03:11:15.806Z,90.77
2022-10-19T03:12:16.116Z,90.66
2022-10-19T03:13:15.796Z,90.46
2022-10-19T03:14:15.955Z,90.36
2022-10-19T03:15:15.797Z,90.16
2022-10-19T03:16:15.947Z,89.95
2022-10-19T03:17:15.757Z,90.16
2022-10-19T03:18:15.856Z,90.86
2022-10-19T03:19:15.817Z,91.17
2022-10-19T03:20:15.717Z,90.66
2022-10-19T03:21:15.886Z,90.46
2022-10-19T03:22:15.626Z,90.36
2022-10-19T03:23:15.833Z,90.25
2022-10-19T03:24:15.627Z,90.66
2022-10-19T03:25:15.937Z,90.42
2022-10-19T03:26:15.597Z,90.11
2022-10-19T03:27:15.718Z,90.22
2022-10-19T03:28:15.627Z,89.95
2022-10-19T03:29:15.767Z,90.05
2022-10-19T03:30:15.745Z,90.05
2022-10-19T03:31:15.788Z,90.05
2022-10-19T03:32:15.657Z,89.95
2022-10-19T03:33:15.810Z,89.95
2022-10-19T03:34:15.626Z,90.05
2022-10-19T03:35:15.450Z,90.36
2022-10-19T03:36:15.727Z,90.56
2022-10-19T03:37:15.478Z,90.70
2022-10-19T03:38:14.806Z,90.81
2022-10-19T03:39:15.567Z,91.01
2022-10-19T03:40:15.639Z,91.01
2022-10-19T03:41:15.447Z,90.81
2022-10-19T03:42:15.650Z,90.91
2022-10-19T03:43:15.626Z,91.01
2022-10-19T03:44:15.579Z,91.01
2022-10-19T03:45:15.446Z,90.81
2022-10-19T03:46:15.600Z,90.70
2022-10-19T03:47:15.426Z,90.70
2022-10-19T03:48:15.577Z,90.50
2022-10-19T03:49:15.486Z,90.60
2022-10-19T03:50:14.696Z,90.50
2022-10-19T03:51:15.866Z,90.50
2022-10-19T03:52:15.307Z,90.50
2022-10-19T03:53:15.577Z,90.60
2022-10-19T03:54:15.318Z,90.70
2022-10-19T03:55:15.436Z,90.75
2022-10-19T03:56:15.330Z,90.85
2022-10-19T03:57:15.436Z,91.26
2022-10-19T03:58:15.256Z,91.46
2022-10-19T03:59:15.486Z,91.56
2022-10-19T04:00:16.245Z,91.46
2022-10-19T04:01:15.562Z,91.77
2022-10-19T04:02:15.307Z,91.87
2022-10-19T04:03:15.368Z,91.87
2022-10-19T04:04:15.357Z,91.77
2022-10-19T04:05:15.317Z,91.46
2022-10-19T04:06:16.929Z,91.66
2022-10-19T04:07:15.226Z,91.87
2022-10-19T04:08:15.260Z,92.18
2022-10-19T04:09:14.537Z,92.07
2022-10-19T04:10:15.298Z,92.07
2022-10-19T04:11:15.227Z,92.32
2022-10-19T04:12:15.308Z,92.83
2022-10-19T04:13:15.117Z,93.13
2022-10-19T04:14:22.867Z,93.13
2022-10-19T04:15:15.226Z,92.27
2022-10-19T04:16:15.237Z,92.38
2022-10-19T04:17:15.098Z,92.38
2022-10-19T04:18:15.306Z,91.46
2022-10-19T04:19:15.188Z,91.46
2022-10-19T04:20:15.346Z,91.46
2022-10-19T04:21:15.247Z,91.16
2022-10-19T04:22:15.007Z,91.26
2022-10-19T04:24:15.048Z,91.46
2022-10-19T04:25:15.289Z,91.36
2022-10-19T04:26:15.091Z,91.26
2022-10-19T04:27:15.117Z,91.56
2022-10-19T04:28:15.057Z,91.97
2022-10-19T04:29:15.233Z,93.40
2022-10-19T04:30:14.997Z,91.66
2022-10-19T04:31:15.128Z,91.77
2022-10-19T04:32:15.007Z,91.36
2022-10-19T04:33:15.077Z,91.05
2022-10-19T04:34:15.106Z,90.64
2022-10-19T04:35:15.227Z,90.34
2022-10-19T04:36:14.266Z,90.24
2022-10-19T04:37:14.749Z,90.14
2022-10-19T04:38:15.046Z,90.24
2022-10-19T04:39:14.876Z,90.34
2022-10-19T04:40:15.031Z,90.64
2022-10-19T04:41:15.997Z,90.75
2022-10-19T04:42:15.067Z,90.85
2022-10-19T04:43:14.827Z,91.09
2022-10-19T04:44:15.023Z,90.99
2022-10-19T04:45:14.107Z,90.79
2022-10-19T04:46:14.969Z,90.59
2022-10-19T04:47:14.796Z,90.69
2022-10-19T04:48:15.307Z,90.59
2022-10-19T04:49:17.836Z,90.59
2022-10-19T04:50:14.956Z,90.69
2022-10-19T04:51:14.896Z,90.69
2022-10-19T04:52:14.656Z,90.79
2022-10-19T04:53:14.918Z,90.99
2022-10-19T04:54:14.747Z,91.35
2022-10-19T04:55:14.956Z,91.35
2022-10-19T04:56:14.068Z,91.35
2022-10-19T04:57:14.881Z,91.55
2022-10-19T04:58:14.827Z,91.75
2022-10-19T04:59:14.088Z,91.96
2022-10-19T05:00:14.686Z,92.05
2022-10-19T05:01:14.852Z,91.85
2022-10-19T05:02:14.827Z,91.85
2022-10-19T05:03:14.746Z,91.96
2022-10-19T05:04:14.646Z,92.05
2022-10-19T05:05:13.903Z,92.16
2022-10-19T05:06:14.708Z,92.16
2022-10-19T05:07:14.566Z,92.16
2022-10-19T05:08:14.690Z,92.26
2022-10-19T05:09:14.457Z,92.26
2022-10-19T05:10:14.659Z,92.26
2022-10-19T05:11:14.526Z,92.22
2022-10-19T05:12:14.804Z,92.11
2022-10-19T05:13:14.591Z,92.22
2022-10-19T05:14:15.083Z,92.22
2022-10-19T05:15:14.496Z,92.32
2022-10-19T05:16:14.686Z,92.22
2022-10-19T05:17:14.502Z,92.22
2022-10-19T05:18:14.586Z,92.22
2022-10-19T05:19:14.471Z,92.32
2022-10-19T05:20:14.536Z,92.32
2022-10-19T05:21:14.521Z,92.32
2022-10-19T05:22:14.606Z,92.32
2022-10-19T05:23:14.526Z,92.32
2022-10-19T05:24:14.346Z,92.27
2022-10-19T05:25:14.495Z,92.18
2022-10-19T05:26:14.379Z,92.18
2022-10-19T05:27:14.567Z,92.38
2022-10-19T05:28:14.298Z,92.79
2022-10-19T05:29:14.516Z,92.58
2022-10-19T05:30:14.437Z,93.50
2022-10-19T05:31:14.459Z,93.50
2022-10-19T05:32:14.647Z,93.09
2022-10-19T05:33:14.504Z,93.29
2022-10-19T05:34:14.388Z,92.79
2022-10-19T05:35:17.450Z,91.93
2022-10-19T05:36:14.329Z,91.62
2022-10-19T05:37:14.394Z,91.01
2022-10-19T05:38:14.356Z,90.77
2022-10-19T05:39:14.266Z,90.46
2022-10-19T05:40:14.828Z,90.36
2022-10-19T05:41:14.217Z,89.95
2022-10-19T05:42:14.317Z,90.25
2022-10-19T05:43:14.252Z,90.25
2022-10-19T05:44:14.316Z,89.85
2022-10-19T05:45:14.227Z,89.64
2022-10-19T05:46:14.513Z,88.63
2022-10-19T05:47:14.177Z,89.03
2022-10-19T05:48:14.265Z,89.30
2022-10-19T05:49:14.188Z,89.20
2022-10-19T05:50:14.276Z,88.69
2022-10-19T05:51:14.348Z,88.39
2022-10-19T05:52:14.276Z,88.18
2022-10-19T05:53:14.245Z,88.18
2022-10-19T05:54:14.200Z,88.69
2022-10-19T05:55:14.198Z,88.69
2022-10-19T05:56:14.017Z,88.69
2022-10-19T05:57:14.299Z,88.69
2022-10-19T05:58:13.999Z,88.69
2022-10-19T05:59:14.188Z,88.59
2022-10-19T06:00:14.006Z,88.79
2022-10-19T06:01:14.226Z,89.00
2022-10-19T06:02:14.019Z,89.36
2022-10-19T06:03:14.207Z,89.36
2022-10-19T06:04:14.125Z,89.26
2022-10-19T06:05:14.086Z,89.56
2022-10-19T06:06:14.030Z,89.05
2022-10-19T06:07:14.153Z,88.81
2022-10-19T06:08:14.178Z,88.60
2022-10-19T06:09:13.817Z,87.89
2022-10-19T06:10:14.056Z,87.38
2022-10-19T06:11:13.856Z,87.29
2022-10-19T06:12:15.810Z,87.08
2022-10-19T06:13:13.949Z,87.18
2022-10-19T06:14:14.066Z,86.88
2022-10-19T06:15:13.966Z,87.08
2022-10-19T06:16:13.996Z,86.88
2022-10-19T06:17:13.973Z,86.98
2022-10-19T06:18:13.956Z,86.88
2022-10-19T06:19:13.877Z,87.29
2022-10-19T06:20:14.127Z,87.49
2022-10-19T06:21:13.838Z,87.38
2022-10-19T06:22:13.937Z,87.04
2022-10-19T06:23:13.826Z,86.83
2022-10-19T06:24:13.936Z,86.94
2022-10-19T06:25:17.965Z,86.63
2022-10-19T06:26:14.128Z,86.53
2022-10-19T06:27:14.023Z,87.14
2022-10-19T06:28:13.698Z,86.94
2022-10-19T06:29:13.867Z,86.74
2022-10-19T06:30:13.866Z,86.69
2022-10-19T06:31:14.238Z,86.19
2022-10-19T06:32:13.837Z,85.88
2022-10-19T06:33:13.866Z,85.98
2022-10-19T06:34:13.976Z,86.39
2022-10-19T06:35:13.868Z,87.10
2022-10-19T06:36:13.728Z,86.80
2022-10-19T06:37:13.736Z,86.15
2022-10-19T06:38:13.677Z,86.76
2022-10-19T06:39:13.897Z,85.74
2022-10-19T06:40:13.822Z,85.80
2022-10-19T06:41:13.637Z,86.21
2022-10-19T06:42:13.756Z,84.99
2022-10-19T06:43:13.539Z,85.70
2022-10-19T06:44:13.777Z,85.09
2022-10-19T06:45:13.477Z,85.30
2022-10-19T06:46:13.707Z,84.95
2022-10-19T06:47:13.536Z,84.55
2022-10-19T06:48:13.686Z,84.14
2022-10-19T06:49:13.528Z,84.04
2022-10-19T06:50:13.838Z,83.94
2022-10-19T06:51:13.547Z,83.18
2022-10-19T06:52:13.739Z,82.98
2022-10-19T06:53:13.628Z,82.58
2022-10-19T06:54:13.687Z,82.14
2022-10-19T06:55:13.525Z,82.44
2022-10-19T06:56:13.386Z,81.63
2022-10-19T06:57:13.500Z,80.31
2022-10-19T06:58:13.457Z,81.69
2022-10-19T06:59:14.831Z,80.98
2022-10-19T07:00:13.338Z,80.18
2022-10-19T07:01:13.559Z,79.53
2022-10-19T07:02:13.386Z,78.92
2022-10-19T07:03:13.497Z,80.34
2022-10-19T07:04:13.561Z,80.20
2022-10-19T07:05:13.508Z,79.39
2022-10-19T07:06:13.977Z,77.84
2022-10-19T07:07:13.626Z,79.66
2022-10-19T07:08:13.438Z,78.71
2022-10-19T07:09:13.626Z,77.90
2022-10-19T07:10:13.558Z,77.09
2022-10-19T07:11:13.187Z,77.80
2022-10-19T07:12:13.746Z,77.66
2022-10-19T07:13:13.230Z,78.06
2022-10-19T07:14:13.397Z,77.06
2022-10-19T07:15:13.408Z,77.06
2022-10-19T07:16:16.155Z,76.31
2022-10-19T07:17:13.238Z,75.81
2022-10-19T07:18:12.556Z,75.51
2022-10-19T07:19:13.236Z,75.27
2022-10-19T07:20:12.516Z,75.87
2022-10-19T07:21:13.287Z,74.66
2022-10-19T07:22:17.360Z,74.76
2022-10-19T07:23:14.319Z,75.07
2022-10-19T07:24:13.498Z,75.37
2022-10-19T07:25:13.257Z,75.27
2022-10-19T07:26:13.117Z,74.46
2022-10-19T07:27:13.347Z,75.16
2022-10-19T07:28:13.197Z,75.94
2022-10-19T07:29:13.986Z,76.24
2022-10-19T07:30:13.627Z,74.08
2022-10-19T07:31:13.217Z,74.66
2022-10-19T07:32:13.027Z,73.05
2022-10-19T07:33:13.753Z,74.15
2022-10-19T07:34:13.086Z,72.04
2022-10-19T07:35:13.159Z,72.20
2022-10-19T07:36:13.630Z,72.11
2022-10-19T07:37:13.163Z,71.80
2022-10-19T07:38:13.039Z,71.40
2022-10-19T07:39:13.186Z,70.79
2022-10-19T07:40:13.327Z,72.88
2022-10-19T07:41:13.506Z,72.58
2022-10-19T07:42:13.096Z,73.79
2022-10-19T07:43:13.076Z,75.06
2022-10-19T07:44:15.591Z,71.64
2022-10-19T07:45:12.946Z,71.64
2022-10-19T07:46:13.022Z,71.84
2022-10-19T07:47:12.940Z,70.22
2022-10-19T07:48:13.086Z,71.33
2022-10-19T07:49:12.887Z,71.64
2022-10-19T07:50:13.077Z,70.79
2022-10-19T07:51:12.906Z,70.39
2022-10-19T07:52:12.976Z,69.69
2022-10-19T07:53:12.977Z,69.05
2022-10-19T07:54:12.937Z,69.96
2022-10-19T07:55:12.928Z,69.25
2022-10-19T07:56:13.036Z,69.35
2022-10-19T07:57:12.911Z,69.49
2022-10-19T07:58:12.738Z,69.69
2022-10-19T07:59:12.848Z,70.73
2022-10-19T08:00:12.766Z,70.53
2022-10-19T08:01:12.888Z,70.83
2022-10-19T08:02:12.901Z,72.27
2022-10-19T08:04:55.446Z,71.77
2022-10-19T08:05:13.919Z,72.20
2022-10-19T08:06:13.217Z,72.91
2022-10-19T08:07:12.859Z,74.12
2022-10-19T08:08:12.886Z,73.82
2022-10-19T08:09:23.012Z,72.61
2022-10-19T08:10:13.497Z,73.01
2022-10-19T08:11:13.007Z,71.91
2022-10-19T08:12:15.526Z,73.32
2022-10-19T08:13:12.546Z,72.41
2022-10-19T08:14:12.808Z,73.28
2022-10-19T08:15:12.737Z,73.48
2022-10-19T08:16:13.635Z,73.58
2022-10-19T08:17:12.577Z,73.55
2022-10-19T08:18:12.706Z,71.64
2022-10-19T08:19:12.758Z,70.73
2022-10-19T08:20:13.026Z,70.90
2022-10-19T08:21:12.646Z,70.50
2022-10-19T08:22:12.803Z,69.18
2022-10-19T08:23:12.707Z,69.65
2022-10-19T08:24:12.668Z,68.95
2022-10-19T08:25:12.717Z,68.65
2022-10-19T08:26:12.678Z,68.41
2022-10-19T08:27:12.766Z,67.51
2022-10-19T08:28:12.657Z,69.59
2022-10-19T08:29:12.687Z,67.27
2022-10-19T08:30:12.387Z,67.27
2022-10-19T08:31:12.668Z,67.18
2022-10-19T08:32:12.646Z,66.07
2022-10-19T08:33:12.546Z,65.87
2022-10-19T08:34:12.446Z,65.97
2022-10-19T08:35:12.747Z,66.60
2022-10-19T08:36:12.367Z,68.01
2022-10-19T08:37:26.060Z,67.71
2022-10-19T08:38:13.056Z,68.44
2022-10-19T08:39:12.520Z,68.44
2022-10-19T08:40:12.527Z,67.81
2022-10-19T08:41:12.546Z,68.62
2022-10-19T08:45:02.407Z,65.20
2022-10-19T08:46:21.246Z,65.10
2022-10-19T08:47:02.410Z,66.20
2022-10-19T08:48:21.587Z,64.77
2022-10-19T08:49:00.325Z,64.27
2022-10-19T08:50:22.477Z,64.37
2022-10-19T08:50:59.827Z,64.24
2022-10-19T08:52:21.066Z,62.33
2022-10-19T08:52:59.757Z,62.33
2022-10-19T08:54:21.638Z,62.33
2022-10-19T08:54:59.807Z,62.93
2022-10-19T08:56:45.966Z,63.64
2022-10-19T08:56:59.137Z,63.50
2022-10-19T08:58:21.936Z,64.14
2022-10-19T08:58:59.776Z,61.36
2022-10-19T09:00:21.563Z,61.11
2022-10-19T09:00:59.748Z,60.68
2022-10-19T09:02:21.690Z,59.88
2022-10-19T09:02:59.265Z,59.48
2022-10-19T09:04:22.507Z,60.11
2022-10-19T09:04:59.847Z,61.34
2022-10-19T09:06:21.521Z,61.36
2022-10-19T09:06:59.816Z,60.03
2022-10-19T09:08:20.857Z,61.94
2022-10-19T09:08:59.972Z,62.92
2022-10-19T09:10:22.646Z,59.65
2022-10-19T09:11:00.338Z,60.45
2022-10-19T09:12:20.948Z,59.45
2022-10-19T09:12:59.758Z,55.41
2022-10-19T09:14:21.518Z,56.74
2022-10-19T09:14:59.789Z,55.71
2022-10-19T09:16:21.677Z,55.39
2022-10-19T09:17:00.037Z,55.46
2022-10-19T09:18:21.288Z,52.51
2022-10-19T09:18:59.687Z,49.49
2022-10-19T09:20:21.468Z,48.69
2022-10-19T09:20:59.658Z,45.19
2022-10-19T09:22:22.098Z,43.73
2022-10-19T09:22:59.397Z,41.78
2022-10-19T09:24:21.006Z,39.79
2022-10-19T09:25:00.501Z,40.09
2022-10-19T22:54:57.229Z,81.65
2022-10-19T22:58:38.658Z,81.85
2022-10-19T22:59:18.306Z,82.26
2022-10-19T23:00:18.199Z,82.37
2022-10-19T23:01:18.012Z,82.89
2022-10-19T23:02:18.228Z,83.23
2022-10-19T23:03:18.007Z,82.71
2022-10-19T23:04:18.209Z,82.40
2022-10-19T23:05:17.987Z,82.89
2022-10-19T23:06:17.363Z,82.89
2022-10-19T23:07:18.005Z,83.64
2022-10-19T23:08:18.093Z,83.54
2022-10-19T23:09:18.056Z,83.03
2022-10-19T23:10:18.183Z,83.75
2022-10-19T23:11:18.173Z,84.20
2022-10-19T23:12:18.133Z,84.20
2022-10-19T23:13:17.973Z,84.06
2022-10-19T23:14:18.155Z,83.85
2022-10-19T23:15:18.024Z,83.75
2022-10-19T23:16:17.995Z,84.09
2022-10-19T23:17:18.006Z,83.78
2022-10-19T23:18:17.894Z,83.75
2022-10-19T23:19:18.053Z,84.09
2022-10-19T23:20:17.814Z,84.41
2022-10-19T23:21:18.007Z,84.41
2022-10-19T23:22:17.873Z,84.20
2022-10-19T23:23:18.214Z,83.95
2022-10-19T23:24:17.884Z,83.85
2022-10-19T23:25:17.934Z,83.54
2022-10-19T23:26:17.893Z,83.64
2022-10-19T23:27:18.163Z,84.06
2022-10-19T23:28:17.834Z,83.99
2022-10-19T23:29:18.008Z,83.58
2022-10-19T23:30:17.843Z,84.51
2022-10-19T23:31:17.883Z,84.30
2022-10-19T23:32:17.853Z,84.20
2022-10-19T23:33:17.704Z,84.20
2022-10-19T23:34:17.909Z,84.41
2022-10-19T23:35:17.665Z,84.09
2022-10-19T23:36:17.913Z,83.78
2022-10-19T23:37:17.694Z,84.20
2022-10-19T23:38:17.844Z,85.33
2022-10-19T23:39:17.714Z,88.39
2022-10-19T23:40:17.824Z,85.15
2022-10-19T23:41:17.653Z,83.50
2022-10-19T23:42:17.804Z,85.67
2022-10-19T23:43:17.714Z,85.15
2022-10-19T23:44:18.026Z,82.95
2022-10-19T23:45:17.705Z,81.81
2022-10-19T23:46:17.813Z,80.58
2022-10-19T23:47:17.884Z,79.96
2022-10-19T23:48:17.534Z,80.79
2022-10-19T23:49:17.694Z,80.99
2022-10-19T23:50:17.493Z,81.71
2022-10-19T23:51:17.734Z,79.75
2022-10-19T23:52:17.545Z,79.38
2022-10-19T23:53:17.664Z,79.38
2022-10-19T23:54:17.563Z,79.79
2022-10-19T23:55:17.695Z,80.55
2022-10-19T23:56:17.507Z,81.07
2022-10-19T23:57:17.692Z,81.37
2022-10-19T23:58:17.615Z,81.62
2022-10-19T23:59:17.685Z,81.62
